Time;durP1;ratioP1;P1;durP2;ratioP2;P2;SDS_P1;SDS_P2;PMS_P1;PMS_P2;Temp;Humidity;BMP_temperature;BMP_pressure;BME280_temperature;BME280_humidity;BME280_pressure;Samples;Min_cycle;Max_cycle;Signal;HPM_P1;HPM_P2
2021/03/19 00:00:42;;;;;;;107.53;47.42;;;;;;;-2.29;93.88;94797.31;5105589;28;20112;-70
2021/03/19 00:03:09;;;;;;;104.68;47.78;;;;;;;-2.25;93.38;94796.06;5106458;28;20040;-69
2021/03/19 00:05:36;;;;;;;93.65;44.00;;;;;;;-2.28;92.75;94795.56;5109192;27;20124;-69
2021/03/19 00:08:03;;;;;;;81.18;38.75;;;;;;;-2.28;92.60;94787.91;5104966;27;20031;-70
2021/03/19 00:10:33;;;;;;;83.03;41.55;;;;;;;-2.26;92.29;94797.00;5105384;28;20044;-69
2021/03/19 00:13:03;;;;;;;73.72;35.67;;;;;;;-2.26;91.99;94797.00;5107489;27;20047;-70
2021/03/19 00:15:30;;;;;;;70.95;36.17;;;;;;;-2.32;92.18;94792.53;5105770;28;20031;-69
2021/03/19 00:18:00;;;;;;;67.80;33.63;;;;;;;-2.32;92.47;94797.63;5105357;27;20044;-70
2021/03/19 00:20:44;;;;;;;72.63;35.58;;;;;;;-2.34;92.52;94789.31;5104137;27;20054;-70
2021/03/19 00:23:11;;;;;;;81.88;38.05;;;;;;;-2.28;92.33;94793.81;5103537;27;20028;-69
2021/03/19 00:25:41;;;;;;;70.80;35.90;;;;;;;-2.33;92.79;94770.50;5105548;28;20054;-70
2021/03/19 00:28:13;;;;;;;66.00;32.75;;;;;;;-2.20;92.61;94791.28;5105293;27;20039;-69
2021/03/19 00:30:43;;;;;;;74.20;34.55;;;;;;;-2.19;92.46;94792.88;5104435;28;20123;-70
2021/03/19 00:33:11;;;;;;;64.13;33.22;;;;;;;-2.26;92.63;94789.34;5104962;28;20035;-70
2021/03/19 00:35:39;;;;;;;70.32;33.42;;;;;;;-2.27;92.59;94795.41;5106017;28;20159;-69
2021/03/19 00:38:09;;;;;;;71.70;33.78;;;;;;;-2.29;92.36;94782.00;5103703;28;20050;-70
2021/03/19 00:40:37;;;;;;;68.35;32.13;;;;;;;-2.28;92.53;94788.72;5104955;28;20557;-70
2021/03/19 00:43:08;;;;;;;72.85;34.70;;;;;;;-2.27;92.84;94795.41;5104989;28;20043;-70
2021/03/19 00:45:35;;;;;;;80.68;36.80;;;;;;;-2.31;92.80;94789.78;5105957;27;21953;-70
2021/03/19 00:48:02;;;;;;;96.82;41.10;;;;;;;-2.30;93.23;94790.63;5103787;28;20056;-69
2021/03/19 00:50:42;;;;;;;92.13;42.42;;;;;;;-2.24;92.75;94784.88;5103795;27;20501;-70
2021/03/19 00:53:09;;;;;;;84.80;38.97;;;;;;;-2.25;92.87;94790.13;5087382;27;20035;-70
2021/03/19 00:55:37;;;;;;;76.80;39.78;;;;;;;-2.24;92.44;94790.00;5105229;28;20040;-69
2021/03/19 00:58:04;;;;;;;63.80;31.58;;;;;;;-2.27;91.97;94797.94;5105438;28;20036;-70
2021/03/19 01:00:33;;;;;;;58.15;29.35;;;;;;;-2.30;91.74;94795.72;5105526;28;20043;-70
2021/03/19 01:02:59;;;;;;;52.33;27.40;;;;;;;-2.28;91.82;94793.81;5103808;27;20039;-70
2021/03/19 01:05:33;;;;;;;54.00;25.90;;;;;;;-2.25;91.46;94780.75;5105703;28;20043;-69
2021/03/19 01:08:02;;;;;;;52.73;24.97;;;;;;;-2.29;91.44;94782.00;5104985;28;20046;-70
2021/03/19 01:10:33;;;;;;;47.83;24.52;;;;;;;-2.38;91.77;94782.91;5105314;28;20085;-70
2021/03/19 01:13:00;;;;;;;47.53;23.23;;;;;;;-2.41;92.38;94788.31;5105303;28;20054;-69
2021/03/19 01:15:27;;;;;;;41.08;22.70;;;;;;;-2.37;92.92;94794.72;5105286;28;20044;-69
2021/03/19 01:17:53;;;;;;;49.60;27.30;;;;;;;-2.25;92.79;94796.06;5086844;28;20043;-69
2021/03/19 01:20:21;;;;;;;53.25;30.42;;;;;;;-2.59;95.80;94796.84;5103754;28;20059;-70
2021/03/19 01:22:48;;;;;;;63.25;31.05;;;;;;;-2.53;95.84;94800.53;5104710;28;20425;-70
2021/03/19 01:25:17;;;;;;;59.53;30.05;;;;;;;-2.56;96.54;94801.63;5105093;28;20139;-70
2021/03/19 01:27:45;;;;;;;54.72;29.67;;;;;;;-2.59;96.64;94791.75;5103902;28;20522;-70
2021/03/19 01:30:18;;;;;;;59.20;30.13;;;;;;;-2.48;96.58;94777.09;5104821;28;20040;-70
2021/03/19 01:32:46;;;;;;;60.55;28.58;;;;;;;-2.36;96.25;94786.94;5109358;27;20063;-70
2021/03/19 01:35:14;;;;;;;62.05;29.40;;;;;;;-2.29;95.75;94782.00;5109352;27;20039;-70
2021/03/19 01:37:41;;;;;;;61.50;30.02;;;;;;;-2.26;96.32;94780.91;5108232;28;20047;-70
2021/03/19 01:40:10;;;;;;;55.58;26.23;;;;;;;-2.56;97.74;94786.31;5109347;28;20043;-70
2021/03/19 01:42:39;;;;;;;47.58;25.25;;;;;;;-2.48;98.01;94787.31;5108542;28;20078;-70
2021/03/19 01:45:09;;;;;;;52.80;24.60;;;;;;;-2.63;97.87;94780.25;5109248;28;20109;-69
2021/03/19 01:48:12;;;;;;;47.47;24.30;;;;;;;-2.54;97.89;94771.69;5112719;27;20044;-70
2021/03/19 01:51:17;;;;;;;49.90;25.52;;;;;;;-2.56;97.71;94765.91;5108973;28;20532;-70
2021/03/19 01:54:21;;;;;;;59.40;27.50;;;;;;;-2.54;97.43;94773.41;5108921;28;20072;-69
2021/03/19 01:57:33;;;;;;;54.13;25.98;;;;;;;-2.55;97.54;94777.72;5108598;27;20057;-70
2021/03/19 02:00:37;;;;;;;54.60;27.55;;;;;;;-2.46;96.87;94775.25;5078044;28;20056;-70
2021/03/19 02:03:41;;;;;;;57.60;28.08;;;;;;;-2.42;96.44;94766.31;5107322;28;20465;-70
2021/03/19 02:06:45;;;;;;;51.90;25.15;;;;;;;-2.38;96.08;94773.50;5107644;27;20035;-70
2021/03/19 02:09:49;;;;;;;58.50;25.90;;;;;;;-2.38;95.50;94768.41;5108345;28;20028;-70
2021/03/19 02:12:53;;;;;;;55.17;26.77;;;;;;;-2.39;95.63;94771.13;5108402;27;20039;-70
2021/03/19 02:15:56;;;;;;;66.25;29.83;;;;;;;-2.33;95.19;94765.41;5108155;27;20051;-70
2021/03/19 02:19:00;;;;;;;57.83;26.35;;;;;;;-2.29;94.68;94771.78;5108539;27;20039;-70
2021/03/19 02:22:04;;;;;;;53.08;26.48;;;;;;;-2.27;94.21;94764.00;5108504;27;20050;-70
2021/03/19 02:25:08;;;;;;;50.83;25.95;;;;;;;-2.29;93.37;94766.69;5107783;27;20467;-70
2021/03/19 02:28:12;;;;;;;53.97;26.30;;;;;;;-2.29;93.08;94764.13;5107147;28;20046;-70
2021/03/19 02:31:13;;;;;;;60.67;29.02;;;;;;;-2.27;92.67;94769.88;5089311;28;20035;-71
2021/03/19 02:33:54;;;;;;;61.90;29.58;;;;;;;-2.39;93.26;94776.22;5107906;28;20035;-70
2021/03/19 02:36:24;;;;;;;67.05;32.42;;;;;;;-2.63;95.77;94770.06;5108162;28;20587;-70
2021/03/19 02:38:50;;;;;;;66.95;32.05;;;;;;;-2.74;96.88;94772.84;5108118;27;20432;-70
2021/03/19 02:41:17;;;;;;;73.55;31.65;;;;;;;-3.05;98.85;94765.63;5109770;27;20036;-70
2021/03/19 02:43:44;;;;;;;64.57;32.60;;;;;;;-2.91;98.48;94772.72;5106504;28;20504;-70
2021/03/19 02:46:11;;;;;;;66.45;33.60;;;;;;;-2.90;98.81;94774.34;5108052;28;20555;-70
2021/03/19 02:48:38;;;;;;;67.80;32.33;;;;;;;-2.92;98.02;94753.31;5109590;27;20065;-71
2021/03/19 02:51:06;;;;;;;67.57;31.75;;;;;;;-2.80;97.99;94758.94;5107884;28;20429;-69
2021/03/19 02:53:35;;;;;;;67.50;32.38;;;;;;;-2.89;98.31;94763.19;5107928;27;20043;-70
2021/03/19 02:56:06;;;;;;;58.42;30.23;;;;;;;-2.78;97.83;94751.16;5088227;28;20052;-70
2021/03/19 02:58:32;;;;;;;66.30;31.83;;;;;;;-2.65;97.39;94761.72;5107669;27;20054;-70
2021/03/19 03:00:59;;;;;;;56.45;29.30;;;;;;;-2.65;96.73;94751.53;5107877;27;20116;-70
2021/03/19 03:03:26;;;;;;;55.80;28.92;;;;;;;-2.62;95.90;94761.44;5106597;28;20039;-70
2021/03/19 03:05:54;;;;;;;57.78;27.60;;;;;;;-2.84;96.15;94751.75;5107878;28;20043;-70
2021/03/19 03:08:22;;;;;;;56.20;29.52;;;;;;;-3.13;97.71;94752.84;5107732;28;20039;-70
2021/03/19 03:10:50;;;;;;;68.03;31.55;;;;;;;-3.21;98.83;94750.22;5107137;28;20045;-70
2021/03/19 03:13:17;;;;;;;65.90;33.47;;;;;;;-3.34;99.63;94741.22;5107261;28;20512;-70
2021/03/19 03:15:44;;;;;;;64.20;31.38;;;;;;;-3.41;100.00;94754.69;5107529;27;20036;-70
2021/03/19 03:18:11;;;;;;;74.07;34.88;;;;;;;-3.33;100.00;94753.00;5107321;28;20124;-70
2021/03/19 03:20:47;;;;;;;63.33;30.85;;;;;;;-3.07;100.00;94752.22;5105191;28;20035;-70
2021/03/19 03:23:17;;;;;;;68.50;31.92;;;;;;;-2.96;99.39;94753.75;5107361;27;20040;-67
2021/03/19 03:25:43;;;;;;;60.03;29.77;;;;;;;-2.84;98.67;94767.06;5106749;28;20515;-69
2021/03/19 03:28:10;;;;;;;58.53;28.90;;;;;;;-2.82;98.08;94749.84;5107669;28;20055;-69
2021/03/19 03:30:46;;;;;;;74.75;31.90;;;;;;;-2.75;97.29;94755.94;5107433;28;20114;-69
2021/03/19 03:33:13;;;;;;;65.38;33.78;;;;;;;-2.94;98.10;94752.63;5109240;27;20118;-69
2021/03/19 03:35:41;;;;;;;65.65;33.22;;;;;;;-2.88;98.26;94756.34;5107230;27;20070;-69
2021/03/19 03:38:12;;;;;;;76.60;36.58;;;;;;;-3.00;98.25;94753.25;5107369;27;20218;-70
2021/03/19 03:40:49;;;;;;;73.28;33.35;;;;;;;-2.98;98.73;94756.44;5109122;27;20114;-70
2021/03/19 03:43:17;;;;;;;76.20;35.83;;;;;;;-2.91;98.03;94762.53;5088841;28;20079;-70
2021/03/19 03:45:44;;;;;;;75.65;35.00;;;;;;;-2.80;97.78;94768.34;5106350;27;20040;-70
2021/03/19 03:48:13;;;;;;;70.03;33.25;;;;;;;-2.74;97.50;94758.34;5088248;28;20051;-69
2021/03/19 03:50:41;;;;;;;77.47;37.10;;;;;;;-2.69;96.93;94757.88;5085919;28;20055;-69
2021/03/19 03:53:10;;;;;;;79.55;37.25;;;;;;;-2.62;96.49;94760.66;5106374;28;20134;-70
2021/03/19 03:55:37;;;;;;;75.35;34.17;;;;;;;-2.61;96.44;94742.66;5106662;27;20089;-70
2021/03/19 03:58:04;;;;;;;77.90;33.35;;;;;;;-2.58;96.60;94747.41;5107762;27;20035;-69
2021/03/19 04:00:31;;;;;;;69.35;34.00;;;;;;;-2.50;96.04;94755.13;5106309;28;20043;-70
2021/03/19 04:03:03;;;;;;;71.47;34.13;;;;;;;-2.45;95.62;94748.75;5105040;28;20043;-70
2021/03/19 04:05:37;;;;;;;73.18;36.90;;;;;;;-2.42;95.34;94756.13;5106782;28;20044;-70
2021/03/19 04:08:05;;;;;;;73.80;35.30;;;;;;;-2.39;94.97;94761.72;5106626;28;20520;-70
2021/03/19 04:10:31;;;;;;;70.15;36.20;;;;;;;-2.31;94.54;94763.50;5087509;28;20062;-70
2021/03/19 04:12:58;;;;;;;75.03;33.55;;;;;;;-2.41;94.38;94752.59;5106251;28;20529;-69
2021/03/19 04:15:25;;;;;;;62.53;30.83;;;;;;;-2.35;94.18;94764.75;5107891;27;20039;-70
2021/03/19 04:17:58;;;;;;;56.08;27.75;;;;;;;-2.32;93.84;94764.47;5105270;28;20058;-69
2021/03/19 04:20:26;;;;;;;62.45;29.08;;;;;;;-2.29;93.64;94769.25;5105055;28;20042;-70
2021/03/19 04:22:53;;;;;;;56.28;28.27;;;;;;;-2.37;93.66;94764.13;5087592;28;20047;-70
2021/03/19 04:25:20;;;;;;;56.72;27.85;;;;;;;-2.26;93.10;94776.59;5106019;28;20051;-70
2021/03/19 04:27:52;;;;;;;57.75;28.48;;;;;;;-2.29;93.03;94756.47;5104420;27;20496;-70
2021/03/19 04:30:24;;;;;;;52.45;27.30;;;;;;;-2.23;92.73;94776.28;5085459;28;20532;-69
2021/03/19 04:32:51;;;;;;;59.03;28.42;;;;;;;-2.22;92.64;94772.00;5104006;28;20047;-69
2021/03/19 04:35:19;;;;;;;62.55;31.95;;;;;;;-2.16;92.37;94774.72;5086659;28;20047;-70
2021/03/19 04:37:48;;;;;;;54.83;28.02;;;;;;;-2.13;92.49;94771.84;5105081;28;20046;-70
2021/03/19 04:40:15;;;;;;;53.65;26.10;;;;;;;-2.15;92.63;94778.88;5087719;28;20047;-69
2021/03/19 04:42:42;;;;;;;50.85;25.27;;;;;;;-2.10;92.41;94775.06;5104230;28;20036;-70
2021/03/19 04:45:10;;;;;;;52.88;26.90;;;;;;;-2.17;92.50;94767.22;5102018;28;20127;-70
2021/03/19 04:47:36;;;;;;;53.13;26.52;;;;;;;-2.15;92.49;94773.75;5087589;28;20501;-69
2021/03/19 04:50:06;;;;;;;51.13;26.08;;;;;;;-2.07;92.54;94779.84;5103992;28;20059;-70
2021/03/19 04:52:33;;;;;;;55.88;25.60;;;;;;;-1.98;92.40;94789.13;5102472;28;20036;-70
2021/03/19 04:55:02;;;;;;;46.67;23.05;;;;;;;-1.97;92.37;94785.63;5103089;27;20039;-69
2021/03/19 04:57:30;;;;;;;57.03;26.17;;;;;;;-1.94;92.83;94780.22;5104525;28;20496;-70
2021/03/19 04:59:57;;;;;;;46.03;22.75;;;;;;;-1.80;92.93;94787.28;5103267;27;20066;-70
2021/03/19 05:02:52;;;;;;;49.28;23.60;;;;;;;-1.79;92.92;94793.97;5105912;28;20470;-70
2021/03/19 05:05:28;;;;;;;52.33;26.83;;;;;;;-1.80;93.09;94782.19;5086347;28;20071;-70
2021/03/19 05:07:55;;;;;;;115.43;59.92;;;;;;;-1.99;95.03;94779.91;5105964;28;20051;-69
2021/03/19 05:10:24;;;;;;;92.78;46.22;;;;;;;-2.09;96.70;94782.56;5105559;28;20044;-69
2021/03/19 05:12:51;;;;;;;100.00;49.22;;;;;;;-1.94;96.69;94764.91;5102836;28;20035;-70
2021/03/19 05:15:18;;;;;;;136.88;61.42;;;;;;;-1.71;96.28;94784.75;5104173;28;20044;-70
2021/03/19 05:17:44;;;;;;;115.07;53.15;;;;;;;-1.62;95.77;94794.03;5104092;28;20059;-70
2021/03/19 05:20:13;;;;;;;89.30;45.45;;;;;;;-1.58;95.34;94790.22;5104602;28;20054;-70
2021/03/19 05:22:40;;;;;;;93.57;44.88;;;;;;;-1.52;95.26;94794.69;5101416;28;20114;-71
2021/03/19 05:25:12;;;;;;;114.95;55.08;;;;;;;-1.45;95.08;94788.00;5103208;28;20047;-70
2021/03/19 05:27:39;;;;;;;124.50;59.00;;;;;;;-1.38;94.80;94785.63;5121701;27;20409;-71
2021/03/19 05:30:08;;;;;;;127.45;65.53;;;;;;;-1.31;94.79;94786.59;5103684;28;20568;-68
2021/03/19 05:32:35;;;;;;;117.97;60.10;;;;;;;-1.26;94.50;94788.66;5101782;28;20032;-72
2021/03/19 05:35:04;;;;;;;112.93;54.08;;;;;;;-1.17;94.41;94797.91;5099711;28;20043;-71
2021/03/19 05:37:31;;;;;;;99.35;45.75;;;;;;;-1.17;94.53;94800.47;5085324;28;20412;-72
2021/03/19 05:39:58;;;;;;;82.07;42.30;;;;;;;-1.16;94.50;94794.41;5085200;28;20040;-71
2021/03/19 05:42:28;;;;;;;90.53;46.20;;;;;;;-1.15;94.36;94806.25;5104844;28;20071;-71
2021/03/19 05:45:16;;;;;;;74.22;36.97;;;;;;;-1.05;93.81;94821.41;5103407;28;20059;-71
2021/03/19 05:47:43;;;;;;;83.90;40.78;;;;;;;-1.04;93.86;94808.47;5103600;28;20067;-71
2021/03/19 05:50:23;;;;;;;93.25;45.72;;;;;;;-1.11;94.23;94796.50;5103989;28;20109;-71
2021/03/19 05:52:49;;;;;;;92.88;48.40;;;;;;;-1.04;94.07;94818.72;5104321;28;20040;-71
2021/03/19 05:55:25;;;;;;;91.85;43.85;;;;;;;-1.01;94.27;94818.41;5104248;28;20541;-71
2021/03/19 05:57:58;;;;;;;75.00;37.78;;;;;;;-0.98;93.92;94818.06;5104934;28;20040;-71
2021/03/19 06:00:27;;;;;;;71.28;33.88;;;;;;;-0.98;93.92;94800.16;5105155;28;20428;-71
2021/03/19 06:02:54;;;;;;;65.72;33.47;;;;;;;-0.79;94.10;94826.38;5103612;28;20039;-72
2021/03/19 06:05:26;;;;;;;63.00;32.30;;;;;;;-0.68;94.14;94818.38;5105137;28;20039;-71
2021/03/19 06:08:02;;;;;;;58.03;28.45;;;;;;;-0.58;93.72;94820.75;5103360;28;20110;-71
2021/03/19 06:10:28;;;;;;;66.40;31.42;;;;;;;-0.45;93.60;94833.03;5109830;28;20054;-71
2021/03/19 06:12:54;;;;;;;73.93;29.30;;;;;;;-0.40;93.64;94823.13;5104021;28;20168;-71
2021/03/19 06:15:31;;;;;;;48.97;27.08;;;;;;;-0.30;93.30;94836.56;5105254;28;20050;-72
2021/03/19 06:18:02;;;;;;;47.05;25.33;;;;;;;-0.23;92.78;94832.38;5107647;27;20054;-71
2021/03/19 06:20:29;;;;;;;65.38;31.77;;;;;;;-0.21;92.45;94830.44;5107495;27;20108;-71
2021/03/19 06:22:58;;;;;;;64.60;31.65;;;;;;;-0.14;92.08;94830.59;5108080;27;20100;-71
2021/03/19 06:25:33;;;;;;;54.72;28.73;;;;;;;-0.06;91.92;94827.22;5110386;27;20061;-71
2021/03/19 06:28:22;;;;;;;55.42;28.50;;;;;;;-0.03;91.57;94824.31;5107961;28;20040;-71
2021/03/19 06:30:49;;;;;;;50.88;26.48;;;;;;;0.05;91.08;94834.53;5107390;27;20121;-71
2021/03/19 06:33:28;;;;;;;66.35;29.92;;;;;;;0.01;90.77;94828.16;5108261;28;20472;-71
2021/03/19 06:36:07;;;;;;;53.67;26.52;;;;;;;0.11;90.90;94833.06;5110382;27;21387;-71
2021/03/19 06:38:47;;;;;;;70.07;32.30;;;;;;;0.11;89.97;94839.00;5108965;27;20139;-70
2021/03/19 06:41:25;;;;;;;56.72;26.70;;;;;;;-0.04;89.90;94830.41;5108435;27;20040;-71
2021/03/19 06:44:12;;;;;;;54.38;27.05;;;;;;;0.03;89.79;94839.03;5108465;27;20412;-70
2021/03/19 06:46:46;;;;;;;47.92;24.33;;;;;;;0.08;89.86;94843.66;5108544;28;20039;-70
2021/03/19 06:49:14;;;;;;;56.30;28.80;;;;;;;0.15;89.85;94845.38;5089851;28;20112;-70
2021/03/19 06:51:47;;;;;;;64.53;29.70;;;;;;;0.26;89.90;94840.88;5107682;28;20122;-71
2021/03/19 06:54:25;;;;;;;47.65;25.05;;;;;;;0.23;90.30;94841.19;5108142;28;20056;-71
2021/03/19 06:57:09;;;;;;;44.90;23.92;;;;;;;0.34;89.70;94840.81;5108942;27;20104;-68
2021/03/19 06:59:57;;;;;;;50.58;25.70;;;;;;;0.43;88.80;94851.84;5108667;28;20511;-68
2021/03/19 07:02:29;;;;;;;49.30;26.73;;;;;;;0.45;88.68;94845.59;5107212;27;20035;-69
2021/03/19 07:05:02;;;;;;;73.45;32.42;;;;;;;0.49;88.54;94851.97;5109275;27;20496;-69
2021/03/19 07:08:06;;;;;;;47.33;24.20;;;;;;;0.51;89.19;94850.03;5091609;28;20043;-70
2021/03/19 07:11:00;;;;;;;59.25;27.42;;;;;;;0.48;88.38;94845.22;5107187;27;20035;-70
2021/03/19 07:13:50;;;;;;;45.28;24.25;;;;;;;0.54;88.17;94844.59;5106520;27;20038;-70
2021/03/19 07:16:45;;;;;;;43.15;22.90;;;;;;;0.51;87.38;94854.38;5096059;28;20058;-69
2021/03/19 07:19:26;;;;;;;42.83;22.20;;;;;;;0.57;86.92;94848.56;5102132;27;20143;-69
2021/03/19 07:22:25;;;;;;;35.22;20.23;;;;;;;0.52;87.40;94856.78;5108337;27;20051;-70
2021/03/19 07:24:58;;;;;;;37.00;20.58;;;;;;;0.64;87.38;94856.38;5108890;27;20054;-70
2021/03/19 07:27:52;;;;;;;43.88;21.58;;;;;;;0.69;86.31;94852.34;5107937;28;20043;-70
2021/03/19 07:30:37;;;;;;;36.00;18.83;;;;;;;0.53;86.55;94842.19;5087931;28;20046;-69
2021/03/19 07:33:13;;;;;;;39.13;20.60;;;;;;;0.50;87.12;94848.44;5105160;27;20038;-69
2021/03/19 07:36:09;;;;;;;42.60;21.83;;;;;;;0.77;86.86;94843.78;5104208;28;20046;-70
2021/03/19 07:38:44;;;;;;;35.45;19.92;;;;;;;0.70;85.12;94848.00;5086745;28;20089;-70
2021/03/19 07:41:14;;;;;;;32.90;19.00;;;;;;;0.59;84.34;94848.41;5102787;28;20118;-70
2021/03/19 07:43:46;;;;;;;32.88;17.05;;;;;;;0.67;83.96;94848.38;5105604;28;20111;-70
2021/03/19 07:46:28;;;;;;;33.08;18.58;;;;;;;0.74;84.44;94841.59;5081968;28;20051;-70
2021/03/19 07:49:13;;;;;;;40.20;20.52;;;;;;;1.04;84.71;94844.28;5083927;28;20051;-71
2021/03/19 07:52:09;;;;;;;;;;;;;;;1.17;83.69;94841.94;5101944;28;20119;-70
2021/03/19 07:54:44;;;;;;;28.80;15.93;;;;;;;1.29;83.12;94840.53;5087854;27;19928;-71
2021/03/19 07:57:56;;;;;;;34.58;19.13;;;;;;;1.50;83.21;94826.28;5084967;28;20682;-70
2021/03/19 08:00:36;;;;;;;27.65;15.77;;;;;;;1.47;80.24;94808.66;5082866;28;20047;-71
2021/03/19 08:03:08;;;;;;;36.65;17.60;;;;;;;1.43;80.20;94815.09;5086717;28;20419;-72
2021/03/19 08:05:51;;;;;;;30.67;16.42;;;;;;;1.44;78.95;94819.25;5102384;27;20039;-72
2021/03/19 08:08:31;;;;;;;29.67;16.15;;;;;;;1.50;79.20;94829.63;5087397;28;20671;-72
2021/03/19 08:11:01;;;;;;;31.55;16.90;;;;;;;1.68;77.65;94831.88;5096671;27;20043;-72
2021/03/19 08:13:40;;;;;;;23.45;13.65;;;;;;;1.80;75.99;94834.00;5119107;27;20043;-72
2021/03/19 08:16:12;;;;;;;27.40;16.02;;;;;;;1.74;76.37;94842.41;5087503;28;20087;-72
2021/03/19 08:18:47;;;;;;;47.30;21.27;;;;;;;1.89;77.08;94832.94;5102954;27;20046;-72
2021/03/19 08:21:20;;;;;;;33.28;15.85;;;;;;;2.20;77.02;94839.69;5084478;28;20100;-72
2021/03/19 08:24:10;;;;;;;25.38;12.60;;;;;;;2.31;72.92;94846.94;5106508;28;20054;-72
2021/03/19 08:27:02;;;;;;;20.70;12.13;;;;;;;2.37;70.89;94848.78;5108274;27;20044;-73
2021/03/19 08:29:42;;;;;;;28.45;15.77;;;;;;;2.16;71.14;94843.56;5104032;28;20589;-72
2021/03/19 08:32:45;;;;;;;40.30;17.30;;;;;;;2.41;71.38;94842.31;5087559;28;20051;-73
2021/03/19 08:35:30;;;;;;;29.38;15.68;;;;;;;2.79;71.83;94836.19;5107984;27;20038;-73
2021/03/19 08:38:17;;;;;;;25.33;16.33;;;;;;;2.83;70.03;94830.50;5105242;28;20519;-73
2021/03/19 08:40:52;;;;;;;27.52;15.32;;;;;;;2.72;70.50;94827.59;5106536;27;20050;-73
2021/03/19 08:43:34;;;;;;;29.17;15.40;;;;;;;3.09;70.49;94829.16;5102830;28;20485;-72
2021/03/19 08:46:14;;;;;;;31.25;16.65;;;;;;;3.23;70.32;94828.31;5086316;28;20115;-73
2021/03/19 08:48:54;;;;;;;25.83;14.40;;;;;;;3.60;70.26;94821.28;5086331;28;20127;-73
2021/03/19 08:51:26;;;;;;;28.80;17.05;;;;;;;3.54;67.37;94824.59;5106314;28;20048;-72
2021/03/19 08:54:32;;;;;;;28.77;16.33;;;;;;;3.52;67.14;94834.28;5108476;27;20092;-72
2021/03/19 08:57:02;;;;;;;;;;;;;;;3.69;67.19;94827.09;5021312;28;20049;-73
2021/03/19 08:59:34;;;;;;;29.58;17.63;;;;;;;3.61;66.49;94822.84;5093398;28;19970;-73
2021/03/19 09:02:29;;;;;;;27.30;14.85;;;;;;;3.59;64.89;94819.69;5101403;27;20038;-73
2021/03/19 09:04:55;;;;;;;30.30;14.98;;;;;;;3.98;66.25;94823.50;5078057;28;20537;-72
2021/03/19 09:07:24;;;;;;;23.13;13.95;;;;;;;4.02;64.78;94824.69;5107766;28;20475;-73
2021/03/19 09:09:54;;;;;;;27.10;15.00;;;;;;;3.87;64.43;94821.47;5104648;28;20043;-72
2021/03/19 09:12:26;;;;;;;63.50;28.17;;;;;;;3.90;65.57;94821.06;5087147;28;20423;-72
2021/03/19 09:15:16;;;;;;;53.17;28.00;;;;;;;4.29;65.11;94824.06;5102583;28;20043;-71
2021/03/19 09:17:43;;;;;;;27.20;15.90;;;;;;;4.50;64.35;94812.81;5101323;28;20123;-72
2021/03/19 09:20:30;;;;;;;32.58;16.20;;;;;;;4.70;62.51;94820.63;5102691;28;20431;-72
2021/03/19 09:23:15;;;;;;;25.05;13.70;;;;;;;4.48;60.14;94807.06;5088930;28;20046;-72
2021/03/19 09:25:51;;;;;;;60.50;26.25;;;;;;;4.65;60.16;94803.16;5103839;28;20046;-71
2021/03/19 09:28:24;;;;;;;37.05;17.02;;;;;;;4.74;59.96;94812.31;5099483;28;20038;-72
2021/03/19 09:31:02;;;;;;;28.55;15.90;;;;;;;5.01;57.56;94814.94;5105073;28;20058;-72
2021/03/19 09:33:44;;;;;;;38.75;17.35;;;;;;;5.28;57.85;94812.41;5104046;28;20040;-72
2021/03/19 09:36:48;;;;;;;22.48;13.45;;;;;;;5.48;56.21;94817.56;5102186;28;20049;-72
2021/03/19 09:39:45;;;;;;;26.88;15.10;;;;;;;5.01;59.61;94816.75;5089536;28;20043;-72
2021/03/19 09:42:18;;;;;;;31.73;16.73;;;;;;;5.63;60.35;94809.59;5104494;28;20090;-73
2021/03/19 09:45:15;;;;;;;24.02;14.55;;;;;;;6.34;63.67;94811.47;5104460;28;20480;-73
2021/03/19 09:47:48;;;;;;;24.58;13.93;;;;;;;6.69;55.23;94793.78;5084909;28;20039;-72
2021/03/19 09:50:27;;;;;;;49.17;21.13;;;;;;;6.70;52.47;94800.56;5100834;28;20036;-72
2021/03/19 09:53:00;;;;;;;27.30;15.80;;;;;;;6.98;52.22;94817.53;5105539;28;20040;-72
2021/03/19 09:55:35;;;;;;;32.03;15.27;;;;;;;7.45;52.89;94807.66;5109240;28;20040;-72
2021/03/19 09:58:20;;;;;;;20.00;12.95;;;;;;;7.78;48.80;94801.41;5108496;28;20039;-72
2021/03/19 10:00:48;;;;;;;42.83;19.00;;;;;;;7.88;47.83;94808.69;5091385;28;20043;-72
2021/03/19 10:03:16;;;;;;;23.88;13.88;;;;;;;7.72;48.13;94791.88;5105893;27;20043;-72
2021/03/19 10:05:46;;;;;;;47.15;21.20;;;;;;;7.87;48.37;94795.91;5107680;28;20044;-72
2021/03/19 10:08:30;;;;;;;33.53;17.70;;;;;;;7.91;47.21;94789.31;5091317;28;20043;-73
2021/03/19 10:11:10;;;;;;;21.73;12.68;;;;;;;8.53;46.76;94797.03;5107032;27;20461;-72
2021/03/19 10:13:36;;;;;;;27.55;15.65;;;;;;;8.12;45.95;94790.69;5090377;28;20036;-72
2021/03/19 10:16:04;;;;;;;25.98;14.80;;;;;;;8.09;46.48;94804.09;5108869;27;20044;-73
2021/03/19 10:18:47;;;;;;;;;;;;;;;8.41;46.50;94804.75;5109070;27;20562;-72
2021/03/19 10:21:18;;;;;;;21.45;12.30;;;;;;;8.83;45.04;94802.25;5107566;27;20409;-72
2021/03/19 10:23:57;;;;;;;19.02;11.63;;;;;;;9.20;43.96;94802.16;5107876;28;20118;-72
2021/03/19 10:26:42;;;;;;;57.53;21.88;;;;;;;9.44;42.42;94807.41;5086356;27;20481;-72
2021/03/19 10:29:31;;;;;;;72.80;24.20;;;;;;;9.22;43.39;94794.94;5085889;28;20043;-72
2021/03/19 10:31:59;;;;;;;17.00;11.50;;;;;;;9.22;41.66;94794.94;5106841;27;20118;-72
2021/03/19 10:34:51;;;;;;;19.60;11.95;;;;;;;9.61;42.99;94805.69;5109229;27;20131;-72
2021/03/19 10:37:41;;;;;;;38.00;19.85;;;;;;;9.05;43.63;94796.56;5108838;27;20039;-72
2021/03/19 10:40:25;;;;;;;21.33;12.82;;;;;;;9.28;44.18;94804.41;5105711;27;21965;-72
2021/03/19 10:43:10;;;;;;;30.50;17.75;;;;;;;9.77;42.04;94802.44;5106451;27;20140;-72
2021/03/19 10:45:49;;;;;;;31.55;16.77;;;;;;;10.42;42.82;94800.69;5102834;27;20051;-71
2021/03/19 10:48:19;;;;;;;23.38;14.10;;;;;;;10.82;40.56;94797.31;5103992;28;20054;-72
2021/03/19 10:51:05;;;;;;;34.95;16.75;;;;;;;11.09;41.71;94791.50;5106184;27;20520;-72
2021/03/19 10:54:03;;;;;;;91.28;30.02;;;;;;;10.84;39.94;94790.06;5102149;27;20062;-72
2021/03/19 10:56:29;;;;;;;19.90;12.80;;;;;;;11.31;37.79;94783.00;5097935;28;20054;-73
2021/03/19 10:59:17;;;;;;;27.65;14.68;;;;;;;11.22;38.99;94786.00;5102453;28;20070;-72
2021/03/19 11:01:49;;;;;;;82.18;29.73;;;;;;;10.55;39.72;94791.03;5100363;27;20039;-71
2021/03/19 11:04:40;;;;;;;46.42;21.80;;;;;;;11.02;40.19;94780.44;5099818;27;20055;-72
2021/03/19 11:07:33;;;;;;;30.73;16.20;;;;;;;11.11;38.44;94773.84;5102196;27;20043;-72
2021/03/19 11:10:16;;;;;;;33.97;17.80;;;;;;;11.26;37.24;94771.47;5100018;28;20208;-72
2021/03/19 11:13:16;;;;;;;17.05;10.73;;;;;;;11.22;35.84;94754.72;5096311;28;20048;-72
2021/03/19 11:15:45;;;;;;;37.78;16.13;;;;;;;11.34;37.42;94762.47;5100696;27;20131;-72
2021/03/19 11:18:22;;;;;;;54.53;28.00;;;;;;;11.61;37.96;94778.28;5107619;27;20040;-73
2021/03/19 11:21:21;;;;;;;61.03;26.38;;;;;;;12.03;37.59;94759.59;5103784;27;20116;-72
2021/03/19 11:24:21;;;;;;;69.72;30.58;;;;;;;11.76;37.62;94759.44;5105811;27;20040;-72
2021/03/19 11:27:01;;;;;;;31.95;17.20;;;;;;;11.97;38.26;94750.09;5102586;27;20047;-72
2021/03/19 11:29:35;;;;;;;21.73;13.32;;;;;;;12.09;38.58;94762.25;5105626;27;20056;-72
2021/03/19 11:32:10;;;;;;;46.28;20.15;;;;;;;12.42;34.80;94761.34;5106716;27;20070;-73
2021/03/19 11:34:49;;;;;;;17.83;11.30;;;;;;;12.19;35.14;94757.16;5106747;27;20047;-72
2021/03/19 11:37:18;;;;;;;17.85;12.15;;;;;;;12.03;35.62;94756.97;5106787;27;20039;-72
2021/03/19 11:39:55;;;;;;;19.58;13.32;;;;;;;12.29;34.28;94761.72;5104941;27;20131;-72
2021/03/19 11:42:34;;;;;;;61.10;22.85;;;;;;;11.18;33.83;94758.84;5104924;27;20035;-72
2021/03/19 11:45:04;;;;;;;36.67;17.23;;;;;;;9.80;37.88;94775.19;5106570;27;20047;-72
2021/03/19 11:47:45;;;;;;;88.53;30.05;;;;;;;9.86;35.43;94768.28;5105490;28;20036;-72
2021/03/19 11:50:23;;;;;;;22.25;11.68;;;;;;;10.78;34.15;94759.69;5106540;27;20926;-72
2021/03/19 11:52:54;;;;;;;12.73;8.63;;;;;;;11.58;31.98;94757.88;5106067;28;20035;-72
2021/03/19 11:55:27;;;;;;;24.33;11.15;;;;;;;12.33;32.80;94752.38;5106363;27;20142;-72
2021/03/19 11:57:54;;;;;;;49.13;19.63;;;;;;;11.80;31.61;94749.31;5101621;28;20531;-72
2021/03/19 12:00:24;;;;;;;17.85;11.68;;;;;;;11.12;33.88;94744.13;5088304;28;20048;-71